Flight Track Log - Related Links

Times and Time Zones

All times are in EDT time to prevent confusion due to time zone crossing. See the UAL33 flight status page for this flight to view local times or setup timezone preferences in your user account.

Time Position Orientation Groundspeed Altitude Reporting Facility
EDT Latitude Longitude Course Direction KTS MPH feet Rate Location/Type
Sun 09:54:02 PM 41.9810 -87.9230 320° Northwest 141 162 600  Level FlightAware ADS-B
Sun 09:54:28 PM 41.9960 -87.9400 320° Northwest 158 182 1,500 2,154 Climbing FlightAware ADS-B
Sun 09:54:41 PM 42.0000 -87.9500 298° West 163 188 2,000 2,195 Climbing FlightAware ADS-B
Sun 09:55:09 PM 41.9910 -87.9770 246° West 205 236 3,000 2,318 Climbing FlightAware ADS-B
Sun 09:55:25 PM 41.9770 -87.9890 213° Southwest 229 264 3,700 2,429 Climbing FlightAware ADS-B
Sun 09:55:51 PM 41.9510 -88.0110 212° Southwest 262 302 4,700 1,800 Climbing FlightAware ADS-B
Sun 09:56:05 PM 41.9370 -88.0230 213° Southwest 267 307 4,900 429 Climbing FlightAware ADS-B
Sun 09:56:33 PM 41.9040 -88.0410 202° Southwest 276 318 5,000 107 Climbing FlightAware ADS-B
Sun 09:57:01 PM 41.8680 -88.0370 175° South 279 321 5,000 536 Level FlightAware ADS-B
Sun 09:57:29 PM 41.8330 -88.0320 174° South 281 323 5,500 2,444 Climbing FlightAware ADS-B
Sun 09:57:55 PM 41.7980 -88.0270 174° South 287 330 7,200 3,724 Climbing FlightAware ADS-B
Sun 09:58:27 PM 41.7540 -88.0270 180° South 298 343 9,100 3,474 Climbing FlightAware ADS-B
Sun 09:59:11 PM 41.6930 -88.0270 180° South 311 358 11,600 3,286 Climbing FlightAware ADS-B
Sun 09:59:51 PM 41.6320 -88.0280 181° South 339 390 13,700 941 Climbing FlightAware ADS-B
Sun 10:01:44 PM 41.4730 -88.0280 180° South 355 409 14,000 2,392 Climbing FlightAware ADS-B
Sun 10:02:29 PM 41.3310 -88.0550 188° South 448 516 20,000 5,448 Climbing FlightAware ADS-B
Sun 10:03:11 PM 41.2450 -88.0850 195° South 460 529 21,900 2,541 Climbing FlightAware ADS-B
Sun 10:03:54 PM 41.1520 -88.1120 192° South 481 554 23,600 2,276 Climbing FlightAware ADS-B
Sun 10:04:38 PM 41.0540 -88.1400 192° South 497 572 25,200 2,071 Climbing FlightAware ADS-B
Sun 10:05:18 PM 40.9640 -88.1650 192° South 510 587 26,500 2,049 Climbing FlightAware ADS-B
Sun 10:06:00 PM 40.8650 -88.1930 192° South 520 598 28,000 2,000 Climbing FlightAware ADS-B
Sun 10:06:42 PM 40.7670 -88.2210 192° South 529 609 29,300 1,807 Climbing FlightAware ADS-B
Sun 10:07:23 PM 40.6650 -88.2390 188° South 554 638 30,500 1,765 Climbing FlightAware ADS-B
Sun 10:08:07 PM 40.5580 -88.2350 178° South 557 641 31,800 2,045 Climbing FlightAware ADS-B
Sun 10:08:51 PM 40.4440 -88.2300 178° South 553 636 33,500 2,143 Climbing FlightAware ADS-B
Sun 10:09:31 PM 40.3350 -88.2260 178° South 552 635 34,800 1,650 Climbing FlightAware ADS-B
Sun 10:10:11 PM 40.2380 -88.2380 185° South 518 596 35,700 1,308 Climbing FlightAware ADS-B
Sun 10:10:49 PM 40.1630 -88.2990 212° Southwest 477 549 36,500 1,125 Climbing FlightAware ADS-B
Sun 10:11:31 PM 40.0990 -88.3840 225° Southwest 488 562 37,200 1,024 Climbing FlightAware ADS-B
Sun 10:12:11 PM 40.0250 -88.4560 217° Southwest 509 586 37,900 1,026 Climbing FlightAware ADS-B
Sun 10:12:47 PM 39.9520 -88.5120 210° Southwest 514 592 38,500 1,105 Climbing FlightAware ADS-B
Sun 10:13:27 PM 39.8670 -88.5750 210° Southwest 514 592 39,300 1,050 Climbing FlightAware ADS-B
Sun 10:14:07 PM 39.7880 -88.6350 210° Southwest 513 590 39,900 477 Climbing FlightAware ADS-B
Sun 10:14:55 PM 39.6870 -88.7110 210° Southwest 509 586 40,000 68 Climbing FlightAware ADS-B
Sun 10:15:35 PM 39.6070 -88.7710 210° Southwest 507 583 40,000  Level FlightAware ADS-B
Sun 10:16:15 PM 39.5250 -88.8310 209° Southwest 507 583 40,000  Level FlightAware ADS-B
Sun 10:16:59 PM 39.4370 -88.8970 210° Southwest 511 588 40,000  Level FlightAware ADS-B
Sun 10:17:39 PM 39.3560 -88.9570 210° Southwest 511 588 40,000  Level FlightAware ADS-B
Sun 10:18:25 PM 39.2580 -89.0300 210° Southwest 512 589 40,000  Level FlightAware ADS-B
Sun 10:19:05 PM 39.1780 -89.0890 210° Southwest 511 588 40,000  Level FlightAware ADS-B
Sun 10:19:41 PM 39.1040 -89.1430 210° Southwest 512 589 40,000  Level FlightAware ADS-B
Sun 10:20:29 PM 39.0040 -89.2170 210° Southwest 512 589 40,000  Level FlightAware ADS-B
Sun 10:21:09 PM 38.9240 -89.2750 209° Southwest 511 588 40,000  Level FlightAware ADS-B
Sun 10:21:51 PM 38.8420 -89.3350 210° Southwest 508 585 40,000  Level FlightAware ADS-B
Sun 10:22:31 PM 38.7560 -89.3980 210° Southwest 507 583 40,000  Level FlightAware ADS-B
Sun 10:23:16 PM 38.6620 -89.4650 209° Southwest 506 582 40,000  Level FlightAware ADS-B
Sun 10:24:00 PM 38.5760 -89.5280 210° Southwest 502 578 40,000  Level FlightAware ADS-B
Sun 10:24:34 PM 38.5030 -89.5800 209° Southwest 503 579 40,000  Level FlightAware ADS-B
Sun 10:25:16 PM 38.4210 -89.6400 210° Southwest 505 581 40,000  Level FlightAware ADS-B
Sun 10:25:59 PM 38.3320 -89.7030 209° Southwest 509 586 40,000  Level FlightAware ADS-B
Sun 10:26:33 PM 38.2710 -89.7460 209° Southwest 509 586 40,000  Level FlightAware ADS-B
Sun 10:27:15 PM 38.1780 -89.8130 210° Southwest 508 585 40,000  Level FlightAware ADS-B
Sun 10:28:05 PM 38.0850 -89.8790 209° Southwest 509 586 40,000  Level FlightAware ADS-B
Sun 10:28:51 PM 37.9790 -89.9550 209° Southwest 508 585 40,000  Level FlightAware ADS-B
Sun 10:29:36 PM 37.8880 -90.0190 209° Southwest 507 583 40,000  Level FlightAware ADS-B
Sun 10:30:33 PM 37.7790 -90.0950 209° Southwest 509 586 40,000  Level FlightAware ADS-B
Sun 10:31:07 PM 37.7200 -90.1370 209° Southwest 509 586 40,000  Level FlightAware ADS-B
Sun 10:31:43 PM 37.6570 -90.1810 209° Southwest 509 586 40,000  Level FlightAware ADS-B
Sun 10:32:31 PM 37.5730 -90.2400 209° Southwest 509 586 40,000  Level FlightAware ADS-B
Sun 10:33:07 PM 37.5100 -90.2840 209° Southwest 509 586 40,000  Level FlightAware ADS-B
Sun 10:34:04 PM 37.3420 -90.4000 209° Southwest 512 589 40,000  Level FlightAware ADS-B
Sun 10:34:42 PM 37.2520 -90.4640 210° Southwest 507 583 40,000  Level FlightAware ADS-B
Sun 10:35:23 PM 37.1720 -90.5190 209° Southwest 508 585 40,000  Level FlightAware ADS-B
Sun 10:36:09 PM 37.0740 -90.5860 209° Southwest 507 583 40,000  Level FlightAware ADS-B
Sun 10:36:48 PM 36.9930 -90.6420 209° Southwest 507 583 40,000  Level FlightAware ADS-B
Sun 10:37:32 PM 36.9030 -90.7040 209° Southwest 507 583 40,000  Level FlightAware ADS-B
Sun 10:38:14 PM 36.8180 -90.7600 208° Southwest 512 589 40,000  Level FlightAware ADS-B
Sun 10:38:58 PM 36.7160 -90.8080 201° Southwest 522 601 40,000  Level FlightAware ADS-B
Sun 10:39:38 PM 36.6240 -90.8460 198° South 523 602 40,000  Level FlightAware ADS-B
Sun 10:40:35 PM 36.5060 -90.8950 198° South 524 603 40,000  Level FlightAware ADS-B
Sun 10:41:18 PM 36.3960 -90.9400 198° South 526 605 40,000  Level FlightAware ADS-B
Sun 10:41:58 PM 36.3020 -90.9790 198° South 525 604 40,000  Level FlightAware ADS-B
Sun 10:42:38 PM 36.2110 -91.0160 198° South 525 604 40,000  Level FlightAware ADS-B
Sun 10:43:14 PM 36.1260 -91.0510 198° South 526 605 40,000  Level FlightAware ADS-B
Sun 10:44:07 PM 36.0110 -91.0970 198° South 527 606 40,000  Level FlightAware ADS-B
Sun 10:44:43 PM 35.9400 -91.1260 198° South 527 606 40,000  Level FlightAware ADS-B
Sun 10:45:30 PM 35.8110 -91.1790 198° South 527 606 40,000  Level FlightAware ADS-B
Sun 10:46:10 PM 35.7170 -91.2170 198° South 526 605 40,000  Level FlightAware ADS-B
Sun 10:46:54 PM 35.6170 -91.2570 198° South 526 605 40,000  Level FlightAware ADS-B
Sun 10:47:48 PM 35.4900 -91.3080 198° South 529 609 40,000  Level FlightAware ADS-B
Sun 10:48:24 PM 35.4060 -91.3420 198° South 530 610 40,000  Level FlightAware ADS-B
Sun 10:49:15 PM 35.3050 -91.3820 198° South 530 610 40,000  Level FlightAware ADS-B
Sun 10:50:03 PM 35.2100 -91.4200 198° South 530 610 40,000  Level FlightAware ADS-B
Sun 10:50:39 PM 35.1380 -91.4480 198° South 530 610 40,000  Level FlightAware ADS-B
Sun 10:52:08 PM 34.8990 -91.5430 198° South 530 610 40,000  Level FlightAware ADS-B
Sun 10:52:44 PM 34.8280 -91.5710 198° South 530 610 40,000  Level FlightAware ADS-B
Sun 10:53:30 PM 34.7370 -91.6070 198° South 530 610 40,000  Level FlightAware ADS-B
Sun 10:54:06 PM 34.6660 -91.6360 199° South 530 610 40,000  Level FlightAware ADS-B
Sun 10:54:43 PM 34.5920 -91.6650 198° South 530 610 40,000  Level FlightAware ADS-B
Sun 10:55:31 PM 34.4970 -91.7020 198° South 530 610 40,000  Level FlightAware ADS-B
Sun 10:56:07 PM 34.4260 -91.7300 198° South 530 610 40,000  Level FlightAware ADS-B
Sun 10:56:43 PM 34.3540 -91.7580 198° South 530 610 40,000  Level FlightAware ADS-B
Sun 10:57:31 PM 34.2590 -91.7960 198° South 530 610 40,000  Level FlightAware ADS-B
Sun 10:58:07 PM 34.1880 -91.8240 198° South 530 610 40,000  Level FlightAware ADS-B
Sun 10:58:44 PM 34.1140 -91.8530 198° South 530 610 40,000  Level FlightAware ADS-B
Sun 10:59:44 PM 33.9960 -91.8990 198° South 530 610 40,000  Level FlightAware ADS-B
Sun 11:00:20 PM 33.9240 -91.9270 198° South 530 610 40,000  Level FlightAware ADS-B
Sun 11:01:08 PM 33.8290 -91.9640 198° South 530 610 40,000  Level FlightAware ADS-B
Sun 11:02:15 PM 33.5014 -92.0931 198° South 525 604 40,000  Level Fort Worth Center
Sun 11:03:15 PM 33.3658 -92.1458 198° South 525 604 40,000  Level Fort Worth Center
Sun 11:04:15 PM 33.2242 -92.1989 197° South 531 611 40,000  Level Fort Worth Center
Sun 11:09:54 PM 32.4110 -92.5121 197° South 527 606 40,000  Level FlightAware ADS-B
Sun 11:11:32 PM 32.1828 -92.5983 198° South 528 608 40,000  Level FlightAware ADS-B
Sun 11:12:18 PM 32.0760 -92.6385 198° South 529 609 40,000  Level FlightAware ADS-B
Sun 11:16:23 PM 31.5986 -93.0396 216° Southwest 521 600 40,000  Level FlightAware ADS-B
Sun 11:16:59 PM 31.5316 -93.1041 219° Southwest 521 600 40,000  Level FlightAware ADS-B
Sun 11:17:46 PM 31.4451 -93.1872 219° Southwest 522 601 40,000  Level FlightAware ADS-B
Sun 11:18:16 PM 31.3887 -93.2412 219° Southwest 522 601 40,000 -100 Level FlightAware ADS-B
Sun 11:18:46 PM 31.3316 -93.2957 219° Southwest 520 598 39,900 -1,091 Descending FlightAware ADS-B
Sun 11:19:22 PM 31.2653 -93.3590 219° Southwest 517 595 38,800 -2,000 Descending FlightAware ADS-B
Sun 11:19:52 PM 31.2096 -93.4123 219° Southwest 515 593 37,700 -2,262 Descending FlightAware ADS-B
Sun 11:20:23 PM 31.1539 -93.4651 219° Southwest 513 590 36,500 -2,361 Descending FlightAware ADS-B
Sun 11:20:53 PM 31.0980 -93.5182 219° Southwest 512 589 35,300 -2,459 Descending FlightAware ADS-B
Sun 11:21:24 PM 31.0414 -93.5718 219° Southwest 512 589 34,000 -2,710 Descending FlightAware ADS-B
Sun 11:21:55 PM 30.9844 -93.6256 219° Southwest 511 588 32,500 -2,951 Descending FlightAware ADS-B
Sun 11:22:25 PM 30.9292 -93.6777 219° Southwest 513 590 31,000 -3,200 Descending FlightAware ADS-B
Sun 11:22:55 PM 30.8733 -93.7307 219° Southwest 517 595 29,300 -3,000 Descending FlightAware ADS-B
Sun 11:23:25 PM 30.8173 -93.7835 219° Southwest 517 595 28,000 -2,557 Descending FlightAware ADS-B
Sun 11:23:56 PM 30.7611 -93.8364 219° Southwest 509 586 26,700 -2,656 Descending FlightAware ADS-B
Sun 11:24:26 PM 30.7067 -93.8877 219° Southwest 500 575 25,300 -2,700 Descending FlightAware ADS-B
Sun 11:24:56 PM 30.6530 -93.9383 219° Southwest 490 564 24,000 -2,600 Descending FlightAware ADS-B
Sun 11:25:26 PM 30.5998 -93.9880 219° Southwest 482 555 22,700 -2,700 Descending FlightAware ADS-B
Sun 11:25:56 PM 30.5477 -94.0363 219° Southwest 471 542 21,300 -2,656 Descending FlightAware ADS-B
Sun 11:26:27 PM 30.4970 -94.0839 219° Southwest 463 533 20,000 -2,656 Descending FlightAware ADS-B
Sun 11:26:57 PM 30.4474 -94.1302 219° Southwest 455 524 18,600 -2,600 Descending FlightAware ADS-B
Sun 11:27:27 PM 30.3983 -94.1760 219° Southwest 447 514 17,400 -2,586 Descending FlightAware ADS-B
Sun 11:27:55 PM 30.3534 -94.2180 219° Southwest 438 504 16,100 -2,595 Descending FlightAware ADS-B
Sun 11:28:04 PM 30.3400 -94.2323 223° Southwest 435 501 15,800 -2,333 Descending FlightAware ADS-B
Sun 11:28:13 PM 30.3271 -94.2481 227° Southwest 430 495 15,400 -2,471 Descending FlightAware ADS-B
Sun 11:28:21 PM 30.3175 -94.2615 230° Southwest 426 490 15,100 -2,276 Descending FlightAware ADS-B
Sun 11:28:42 PM 30.2947 -94.3008 238° Southwest 417 480 14,300 -2,222 Descending FlightAware ADS-B
Sun 11:29:42 PM 30.2390 -94.4149 240° Southwest 396 456 12,100 -1,470 Descending FlightAware ADS-B
Sun 11:31:13 PM 30.1640 -94.5680 240° Southwest 330 380 10,600 -992 Descending FlightAware ADS-B
Sun 11:31:43 PM 30.1420 -94.6128 240° Southwest 310 357 10,100 -1,000 Descending FlightAware ADS-B
Sun 11:32:13 PM 30.1215 -94.6549 241° Southwest 294 338 9,600 -1,100 Descending FlightAware ADS-B
Sun 11:32:43 PM 30.1015 -94.6955 240° Southwest 290 334 9,000 -1,139 Descending FlightAware ADS-B
Sun 11:34:30 PM 30.0315 -94.8374 240° Southwest 284 327 7,000 -1,091 Descending FlightAware ADS-B
Sun 11:34:44 PM 30.0223 -94.8561 240° Southwest 282 325 6,800 -1,000 Descending FlightAware ADS-B
Sun 11:34:48 PM 30.0199 -94.8613 242° Southwest 281 323 6,700 -1,500 Descending FlightAware ADS-B
Sun 11:34:52 PM 30.0179 -94.8662 245° Southwest 281 323 6,600 -857 Descending FlightAware ADS-B
Sun 11:34:55 PM 30.0162 -94.8710 248° West 281 323 6,600 -857 Level FlightAware ADS-B
Sun 11:34:59 PM 30.0145 -94.8766 251° West 281 323 6,500 -1,385 Descending FlightAware ADS-B
Sun 11:35:08 PM 30.0116 -94.8900 257° West 280 322 6,300 -1,333 Descending FlightAware ADS-B
Sun 11:35:17 PM 30.0100 -94.9029 264° West 279 321 6,100 -1,429 Descending FlightAware ADS-B
Sun 11:35:29 PM 30.0090 -94.9213 266° West 276 318 5,800 -1,714 Descending FlightAware ADS-B
Sun 11:35:45 PM 30.0073 -94.9445 265° West 271 312 5,300 -1,862 Descending FlightAware ADS-B
Sun 11:35:58 PM 30.0060 -94.9624 265° West 267 307 4,900 -1,500 Descending FlightAware ADS-B
Sun 11:36:13 PM 30.0045 -94.9836 265° West 255 293 4,600 -1,333 Descending FlightAware ADS-B
Sun 11:36:43 PM 30.0016 -95.0224 265° West 235 270 3,900 -1,256 Descending FlightAware ADS-B
Sun 11:36:56 PM 30.0004 -95.0384 265° West 225 259 3,700 -828 Descending FlightAware ADS-B
Sun 11:37:12 PM 29.9991 -95.0562 265° West 216 249 3,500 -652 Descending FlightAware ADS-B
Sun 11:37:42 PM 29.9967 -95.0897 265° West 201 231 3,200 -533 Descending FlightAware ADS-B
Sun 11:37:57 PM 29.9955 -95.1060 265° West 198 228 3,100 -400 Descending FlightAware ADS-B
Sun 11:38:12 PM 29.9943 -95.1215 265° West 197 227 3,000 -261 Descending FlightAware ADS-B
Sun 11:38:20 PM 29.9937 -95.1296 265° West 191 220 3,000  Level FlightAware ADS-B
Sun 11:38:26 PM 29.9935 -95.1359 268° West 189 217 3,000 -724 Level FlightAware ADS-B
Sun 11:39:18 PM 29.9935 -95.1877 270° West 189 217 2,300 -833 Descending FlightAware ADS-B
Sun 11:39:38 PM 29.9935 -95.2081 270° West 186 214 2,000 -1,000 Descending FlightAware ADS-B
Sun 11:39:54 PM 29.9935 -95.2232 270° West 176 203 1,700 -1,000 Descending FlightAware ADS-B
Sun 11:40:02 PM 29.9935 -95.2307 270° West 168 193 1,600 -783 Descending FlightAware ADS-B
Sun 11:40:17 PM 29.9935 -95.2434 270° West 152 175 1,400 -750 Descending FlightAware ADS-B
Sun 11:40:26 PM 29.9935 -95.2502 270° West 145 167 1,300 -600 Descending FlightAware ADS-B
Sun 11:40:37 PM 29.9934 -95.2586 269° West 142 163 1,200 -720 Descending FlightAware ADS-B
Sun 11:40:51 PM 29.9934 -95.2695 270° West 143 165 1,000 -889 Descending FlightAware ADS-B
Sun 11:41:04 PM 29.9935 -95.2793 271° West 143 165 800 -783 Descending FlightAware ADS-B
Sun 11:41:14 PM 29.9935 -95.2871 270° West 143 165 700 -692 Descending FlightAware ADS-B
Sun 11:41:30 PM 29.9934 -95.2989 269° West 143 165 500 -727 Descending FlightAware ADS-B
Sun 11:41:47 PM 29.9935 -95.3124 270° West 145 167 300 -783 Descending FlightAware ADS-B
Sun 11:41:53 PM 29.9935 -95.3169 270° West 146 168 200  Descending FlightAware ADS-B
Sun 11:42:08 PM 29.9935 -95.3286 270° West 144 166 122 Descending FlightAware ADS-B
Sun 11:42:42 PM 29.9944 -95.3481 270° West 160 184 300 529 Climbing Houston Center

Login

Don't have an account? Register now (free) for customized features, flight alerts, and more!